Time;durP1;ratioP1;P1;durP2;ratioP2;P2;SDS_P1;SDS_P2;PMS_P1;PMS_P2;Temp;Humidity;BMP_temperature;BMP_pressure;BME280_temperature;BME280_humidity;BME280_pressure;Samples;Min_cycle;Max_cycle;Signal;HPM_P1;HPM_P2
2023/03/11 00:02:03;;;;;;;;;;;;;;;;;;5090134;28;19912;-88
2023/03/11 00:04:29;;;;;;;;;;;;;;;;;;5077709;28;19978;-88
2023/03/11 00:06:54;;;;;;;;;;;;;;;;;;5090869;28;20433;-87
2023/03/11 00:09:19;;;;;;;;;;;;;;;;;;5088339;28;19920;-88
2023/03/11 00:11:45;;;;;;;;;;;;;;;;;;5079239;28;19920;-88
2023/03/11 00:14:10;;;;;;;;;;;;;;;;;;5090028;28;20003;-86
2023/03/11 00:16:36;;;;;;;;;;;;;;;;;;5082197;28;19916;-88
2023/03/11 00:19:01;;;;;;;;;;;;;;;;;;5079698;28;19955;-88
2023/03/11 00:21:26;;;;;;;;;;;;;;;;;;5079275;28;20434;-86
2023/03/11 00:23:52;;;;;;;;;;;;;;;;;;5088365;28;19973;-86
2023/03/11 00:26:17;;;;;;;;;;;;;;;;;;5077628;28;19923;-86
2023/03/11 00:28:43;;;;;;;;;;;;;;;;;;5080204;28;20291;-89
2023/03/11 00:31:09;;;;;;;;;;;;;;;;;;5087515;28;20676;-85
2023/03/11 00:33:35;;;;;;;;;;;;;;;;;;5076917;28;20015;-86
2023/03/11 00:36:00;;;;;;;;;;;;;;;;;;5078832;28;20412;-86
2023/03/11 00:38:26;;;;;;;;;;;;;;;;;;5087650;28;20070;-87
2023/03/11 00:40:51;;;;;;;;;;;;;;;;;;5087741;28;19920;-89
2023/03/11 00:43:17;;;;;;;;;;;;;;;;;;5087791;28;19920;-87
2023/03/11 00:45:42;;;;;;;;;;;;;;;;;;5077131;28;20044;-88
2023/03/11 00:48:08;;;;;;;;;;;;;;;;;;5077163;28;19915;-85
2023/03/11 00:50:34;;;;;;;;;;;;;;;;;;5087485;28;19916;-87
2023/03/11 00:52:59;;;;;;;;;;;;;;;;;;5078873;28;19923;-85
2023/03/11 00:55:27;;;;;;;;;;;;;;;;;;5087417;28;19920;-87
2023/03/11 00:57:53;;;;;;;;;;;;;;;;;;5077544;28;21384;-86
2023/03/11 01:00:20;;;;;;;;;;;;;;;;;;5093818;28;20388;-85
2023/03/11 01:02:45;;;;;;;;;;;;;;;;;;5091958;28;20301;-85
2023/03/11 01:05:11;;;;;;;;;;;;;;;;;;5093472;28;19920;-84
2023/03/11 01:07:37;;;;;;;;;;;;;;;;;;5089126;28;19932;-85
2023/03/11 01:10:03;;;;;;;;;;;;;;;;;;5093621;28;19927;-84
2023/03/11 01:12:29;;;;;;;;;;;;;;;;;;5093768;28;20038;-87
2023/03/11 01:14:54;;;;;;;;;;;;;;;;;;5093987;28;20014;-85
2023/03/11 01:17:21;;;;;;;;;;;;;;;;;;5075880;28;19916;-85
2023/03/11 01:19:46;;;;;;;;;;;;;;;;;;5076501;28;20319;-85
2023/03/11 01:22:12;;;;;;;;;;;;;;;;;;5093971;28;19999;-85
2023/03/11 01:24:37;;;;;;;;;;;;;;;;;;5093497;28;20011;-86
2023/03/11 01:27:03;;;;;;;;;;;;;;;;;;5093501;28;20006;-87
2023/03/11 01:29:28;;;;;;;;;;;;;;;;;;5093786;28;19912;-87
2023/03/11 01:31:53;;;;;;;;;;;;;;;;;;5093845;28;19916;-86
2023/03/11 01:34:19;;;;;;;;;;;;;;;;;;5081551;28;19919;-84
2023/03/11 01:36:44;;;;;;;;;;;;;;;;;;5115350;28;19924;-85
2023/03/11 01:39:10;;;;;;;;;;;;;;;;;;5113728;28;19983;-85
2023/03/11 01:41:35;;;;;;;;;;;;;;;;;;5096225;28;19916;-85
2023/03/11 01:44:02;;;;;;;;;;;;;;;;;;5094945;28;19927;-84
2023/03/11 01:46:47;;;;;;;;;;;;;;;;;;5094372;28;19916;-86
2023/03/11 01:49:12;;;;;;;;;;;;;;;;;;5075413;28;19923;-86
2023/03/11 01:51:42;;;;;;;;;;;;;;;;;;5093484;28;19916;-84
2023/03/11 01:54:12;;;;;;;;;;;;;;;;;;5093554;28;19916;-84
2023/03/11 01:56:38;;;;;;;;;;;;;;;;;;5094780;28;20375;-85
2023/03/11 01:59:05;;;;;;;;;;;;;;;;;;5079322;28;19912;-86
2023/03/11 02:01:30;;;;;;;;;;;;;;;;;;5097647;28;19968;-84
2023/03/11 02:03:56;;;;;;;;;;;;;;;;;;5079325;28;19916;-87
2023/03/11 02:06:22;;;;;;;;;;;;;;;;;;5097629;28;19924;-85
2023/03/11 02:08:48;;;;;;;;;;;;;;;;;;5097453;28;20018;-85
2023/03/11 02:11:19;;;;;;;;;;;;;;;;;;5079143;28;19993;-85
2023/03/11 02:13:45;;;;;;;;;;;;;;;;;;5078989;28;19916;-85
2023/03/11 02:16:11;;;;;;;;;;;;;;;;;;5079145;28;19923;-86
2023/03/11 02:18:37;;;;;;;;;;;;;;;;;;5078732;28;19916;-85
2023/03/11 02:21:08;;;;;;;;;;;;;;;;;;5097061;28;20294;-84
2023/03/11 02:23:47;;;;;;;;;;;;;;;;;;5097069;28;19920;-85
2023/03/11 02:26:16;;;;;;;;;;;;;;;;;;5078842;28;19923;-86
2023/03/11 02:28:41;;;;;;;;;;;;;;;;;;5078788;28;19922;-85
2023/03/11 02:31:07;;;;;;;;;;;;;;;;;;5097045;28;19916;-84
2023/03/11 02:33:34;;;;;;;;;;;;;;;;;;5078815;28;19923;-86
2023/03/11 02:36:00;;;;;;;;;;;;;;;;;;5081662;28;19916;-86
2023/03/11 02:38:25;;;;;;;;;;;;;;;;;;5083631;28;20278;-85
2023/03/11 02:40:54;;;;;;;;;;;;;;;;;;5096820;28;19960;-85
2023/03/11 02:43:25;;;;;;;;;;;;;;;;;;5095394;28;19955;-87
2023/03/11 02:45:51;;;;;;;;;;;;;;;;;;5096518;28;19961;-85
2023/03/11 02:48:17;;;;;;;;;;;;;;;;;;5096552;28;20014;-86
2023/03/11 02:50:44;;;;;;;;;;;;;;;;;;5096692;28;19920;-86
2023/03/11 02:53:10;;;;;;;;;;;;;;;;;;5096603;28;19945;-86
2023/03/11 02:55:35;;;;;;;;;;;;;;;;;;5096507;28;19920;-88
2023/03/11 02:58:01;;;;;;;;;;;;;;;;;;5096424;28;19916;-87
2023/03/11 03:00:26;;;;;;;;;;;;;;;;;;5095037;28;19970;-85
2023/03/11 03:02:52;;;;;;;;;;;;;;;;;;5096514;28;19977;-88
2023/03/11 03:05:21;;;;;;;;;;;;;;;;;;5095925;28;20322;-85
2023/03/11 03:07:47;;;;;;;;;;;;;;;;;;5094233;28;20275;-86
2023/03/11 03:10:13;;;;;;;;;;;;;;;;;;5094515;28;19974;-86
2023/03/11 03:12:39;;;;;;;;;;;;;;;;;;5096076;28;19955;-87
2023/03/11 03:15:04;;;;;;;;;;;;;;;;;;5094420;28;20287;-86
2023/03/11 03:17:30;;;;;;;;;;;;;;;;;;5095899;28;20291;-85
2023/03/11 03:19:55;;;;;;;;;;;;;;;;;;5087041;28;19923;-85
2023/03/11 03:22:20;;;;;;;;;;;;;;;;;;5095677;28;19920;-85
2023/03/11 03:24:46;;;;;;;;;;;;;;;;;;5094804;28;19916;-85
2023/03/11 03:27:11;;;;;;;;;;;;;;;;;;5096018;28;20408;-84
2023/03/11 03:29:37;;;;;;;;;;;;;;;;;;5094384;28;19919;-88
2023/03/11 03:32:02;;;;;;;;;;;;;;;;;;5095643;28;19924;-87
2023/03/11 03:34:28;;;;;;;;;;;;;;;;;;5095729;28;19920;-85
2023/03/11 03:36:53;;;;;;;;;;;;;;;;;;5095571;28;19928;-89
2023/03/11 03:39:18;;;;;;;;;;;;;;;;;;5094317;28;19920;-86
2023/03/11 03:41:44;;;;;;;;;;;;;;;;;;5095497;28;20373;-86
2023/03/11 03:44:09;;;;;;;;;;;;;;;;;;5094145;28;19916;-86
2023/03/11 03:46:37;;;;;;;;;;;;;;;;;;5094232;28;19916;-86
2023/03/11 03:49:02;;;;;;;;;;;;;;;;;;5087321;28;19942;-85
2023/03/11 03:51:28;;;;;;;;;;;;;;;;;;5095223;28;20436;-86
2023/03/11 03:53:53;;;;;;;;;;;;;;;;;;5093931;28;19939;-85
2023/03/11 03:56:18;;;;;;;;;;;;;;;;;;5095198;28;19920;-85
2023/03/11 03:58:44;;;;;;;;;;;;;;;;;;5094615;28;19920;-88
2023/03/11 04:01:10;;;;;;;;;;;;;;;;;;5093714;28;19920;-89
2023/03/11 04:03:37;;;;;;;;;;;;;;;;;;5082523;28;19920;-87
2023/03/11 04:06:17;;;;;;;;;;;;;;;;;;5083682;28;19924;-85
2023/03/11 04:08:43;;;;;;;;;;;;;;;;;;5080885;28;20027;-86
2023/03/11 04:11:08;;;;;;;;;;;;;;;;;;5094121;28;20377;-85
2023/03/11 04:13:34;;;;;;;;;;;;;;;;;;5094831;28;19961;-86
2023/03/11 04:16:01;;;;;;;;;;;;;;;;;;5089793;28;19920;-85
2023/03/11 04:18:27;;;;;;;;;;;;;;;;;;5090459;28;20435;-87
2023/03/11 04:20:52;;;;;;;;;;;;;;;;;;5092701;28;20058;-86
2023/03/11 04:23:17;;;;;;;;;;;;;;;;;;5092226;28;19916;-87
2023/03/11 04:25:43;;;;;;;;;;;;;;;;;;5091343;28;20279;-87
2023/03/11 04:28:08;;;;;;;;;;;;;;;;;;5089676;28;19916;-88
2023/03/11 04:30:34;;;;;;;;;;;;;;;;;;5077379;28;19916;-87
2023/03/11 04:32:59;;;;;;;;;;;;;;;;;;5081931;28;19916;-85
2023/03/11 04:35:25;;;;;;;;;;;;;;;;;;5094285;28;19923;-84
2023/03/11 04:37:50;;;;;;;;;;;;;;;;;;5088780;28;19923;-85
2023/03/11 04:40:16;;;;;;;;;;;;;;;;;;5091080;28;19920;-86
2023/03/11 04:42:41;;;;;;;;;;;;;;;;;;5093523;28;19916;-87
2023/03/11 04:45:07;;;;;;;;;;;;;;;;;;5083998;28;19939;-85
2023/03/11 04:47:33;;;;;;;;;;;;;;;;;;5082567;28;19920;-87
2023/03/11 04:49:58;;;;;;;;;;;;;;;;;;5094051;28;19973;-86
2023/03/11 04:52:24;;;;;;;;;;;;;;;;;;5094116;28;19916;-85
2023/03/11 04:54:49;;;;;;;;;;;;;;;;;;5094156;28;19916;-87
2023/03/11 04:57:14;;;;;;;;;;;;;;;;;;5085330;28;19923;-87
2023/03/11 04:59:40;;;;;;;;;;;;;;;;;;5091500;28;19924;-86
2023/03/11 05:02:05;;;;;;;;;;;;;;;;;;5092086;28;19951;-87
2023/03/11 05:04:31;;;;;;;;;;;;;;;;;;5092889;28;19920;-84
2023/03/11 05:06:56;;;;;;;;;;;;;;;;;;5093690;28;19923;-86
2023/03/11 05:09:22;;;;;;;;;;;;;;;;;;5093727;28;19942;-87
2023/03/11 05:11:47;;;;;;;;;;;;;;;;;;5093784;28;19916;-87
2023/03/11 05:14:12;;;;;;;;;;;;;;;;;;5092694;28;19920;-88
2023/03/11 05:16:38;;;;;;;;;;;;;;;;;;5093655;28;19923;-85
2023/03/11 05:19:29;;;;;;;;;;;;;;;;;;5075580;28;20011;-85
2023/03/11 05:21:49;;;;;;;;;;;;;;;;;;5093416;28;19916;-85
2023/03/11 05:24:14;;;;;;;;;;;;;;;;;;5093483;28;19962;-85
2023/03/11 05:26:40;;;;;;;;;;;;;;;;;;5093564;28;19916;-84
2023/03/11 05:29:05;;;;;;;;;;;;;;;;;;5092629;28;19924;-85
2023/03/11 05:31:30;;;;;;;;;;;;;;;;;;5092529;28;19920;-85
2023/03/11 05:33:56;;;;;;;;;;;;;;;;;;5092697;28;19919;-86
2023/03/11 05:36:21;;;;;;;;;;;;;;;;;;5075442;28;20030;-84
2023/03/11 05:38:47;;;;;;;;;;;;;;;;;;5093547;28;20040;-85
2023/03/11 05:41:12;;;;;;;;;;;;;;;;;;5075730;28;19920;-85
2023/03/11 05:43:37;;;;;;;;;;;;;;;;;;5092669;28;19916;-85
2023/03/11 05:46:03;;;;;;;;;;;;;;;;;;5077017;28;19946;-85
2023/03/11 05:48:28;;;;;;;;;;;;;;;;;;5093857;28;20469;-86
2023/03/11 05:50:54;;;;;;;;;;;;;;;;;;5080610;28;19924;-88
2023/03/11 05:53:19;;;;;;;;;;;;;;;;;;5092281;28;19923;-89
2023/03/11 05:55:45;;;;;;;;;;;;;;;;;;5101553;28;19922;-89
2023/03/11 05:58:10;;;;;;;;;;;;;;;;;;5110087;28;19974;-86
2023/03/11 06:00:36;;;;;;;;;;;;;;;;;;5099762;28;19920;-87
2023/03/11 06:03:01;;;;;;;;;;;;;;;;;;5095030;28;19916;-86
2023/03/11 06:05:26;;;;;;;;;;;;;;;;;;5082065;28;19927;-85
2023/03/11 06:07:52;;;;;;;;;;;;;;;;;;5093084;28;20009;-84
2023/03/11 06:10:17;;;;;;;;;;;;;;;;;;5094392;28;19962;-85
2023/03/11 06:12:43;;;;;;;;;;;;;;;;;;5075889;28;20371;-87
2023/03/11 06:15:08;;;;;;;;;;;;;;;;;;5093666;28;19920;-85
2023/03/11 06:17:34;;;;;;;;;;;;;;;;;;5092013;28;19965;-86
2023/03/11 06:19:59;;;;;;;;;;;;;;;;;;5092903;28;19920;-86
2023/03/11 06:22:25;;;;;;;;;;;;;;;;;;5092583;28;19961;-86
2023/03/11 06:24:50;;;;;;;;;;;;;;;;;;5093501;28;19916;-87
2023/03/11 06:27:16;;;;;;;;;;;;;;;;;;5075680;28;19927;-85
2023/03/11 06:29:41;;;;;;;;;;;;;;;;;;5091892;28;19923;-85
2023/03/11 06:32:06;;;;;;;;;;;;;;;;;;5090575;28;19924;-85
2023/03/11 06:34:32;;;;;;;;;;;;;;;;;;5092332;28;19928;-87
2023/03/11 06:36:59;;;;;;;;;;;;;;;;;;5093312;28;19923;-85
2023/03/11 06:39:24;;;;;;;;;;;;;;;;;;5091785;28;19923;-88
2023/03/11 06:41:49;;;;;;;;;;;;;;;;;;5092972;28;19916;-86
2023/03/11 06:44:15;;;;;;;;;;;;;;;;;;5077799;28;19916;-87
2023/03/11 06:46:40;;;;;;;;;;;;;;;;;;5096604;28;19916;-85
2023/03/11 06:49:06;;;;;;;;;;;;;;;;;;5078374;28;19997;-86
2023/03/11 06:51:31;;;;;;;;;;;;;;;;;;5091594;28;19974;-90
2023/03/11 06:53:56;;;;;;;;;;;;;;;;;;5095265;28;19920;-86
2023/03/11 06:56:22;;;;;;;;;;;;;;;;;;5084497;28;19967;-86
2023/03/11 06:58:48;;;;;;;;;;;;;;;;;;5078917;28;19989;-89
2023/03/11 07:01:15;;;;;;;;;;;;;;;;;;5082070;28;19920;-88
2023/03/11 07:03:40;;;;;;;;;;;;;;;;;;5061450;28;20629;-87
2023/03/11 07:06:10;;;;;;;;;;;;;;;;;;5083533;28;19920;-89
2023/03/11 07:08:35;;;;;;;;;;;;;;;;;;5064751;28;19924;-87
2023/03/11 07:11:08;;;;;;;;;;;;;;;;;;5088854;28;20413;-90
2023/03/11 07:13:34;;;;;;;;;;;;;;;;;;5082764;28;20296;-89
2023/03/11 07:16:04;;;;;;;;;;;;;;;;;;5069062;28;19922;-89
2023/03/11 07:18:30;;;;;;;;;;;;;;;;;;5081355;28;20379;-89
2023/03/11 07:20:55;;;;;;;;;;;;;;;;;;5078502;28;19963;-85
2023/03/11 07:23:21;;;;;;;;;;;;;;;;;;5092428;28;19924;-87
2023/03/11 07:25:47;;;;;;;;;;;;;;;;;;5080281;28;19916;-88
2023/03/11 07:28:12;;;;;;;;;;;;;;;;;;5079436;28;20449;-88
2023/03/11 07:30:38;;;;;;;;;;;;;;;;;;5086851;28;20340;-90
2023/03/11 07:33:04;;;;;;;;;;;;;;;;;;5094553;28;19956;-91
2023/03/11 07:35:29;;;;;;;;;;;;;;;;;;5089631;28;19923;-88
2023/03/11 07:37:55;;;;;;;;;;;;;;;;;;5091603;28;19970;-87
2023/03/11 07:40:20;;;;;;;;;;;;;;;;;;5085529;28;19920;-89
2023/03/11 07:42:45;;;;;;;;;;;;;;;;;;5093882;28;19923;-87
2023/03/11 07:45:11;;;;;;;;;;;;;;;;;;5082588;28;19916;-87
2023/03/11 07:47:36;;;;;;;;;;;;;;;;;;5095928;28;19984;-90
2023/03/11 07:50:02;;;;;;;;;;;;;;;;;;5096054;28;20295;-90
2023/03/11 07:52:31;;;;;;;;;;;;;;;;;;5095502;28;19916;-91
2023/03/11 07:54:56;;;;;;;;;;;;;;;;;;5095776;28;19920;-91
2023/03/11 07:57:22;;;;;;;;;;;;;;;;;;5096293;28;20287;-90
2023/03/11 07:59:47;;;;;;;;;;;;;;;;;;5095638;28;19916;-89
2023/03/11 08:02:12;;;;;;;;;;;;;;;;;;5095621;28;19920;-91
2023/03/11 08:04:38;;;;;;;;;;;;;;;;;;5094964;28;20397;-89
2023/03/11 08:07:03;;;;;;;;;;;;;;;;;;5093833;28;19955;-89
2023/03/11 08:09:29;;;;;;;;;;;;;;;;;;5094810;28;19916;-88
2023/03/11 08:11:54;;;;;;;;;;;;;;;;;;5093848;28;19939;-87
2023/03/11 08:14:19;;;;;;;;;;;;;;;;;;5091136;28;19923;-88
2023/03/11 08:16:45;;;;;;;;;;;;;;;;;;5076742;28;19938;-88
2023/03/11 08:19:11;;;;;;;;;;;;;;;;;;5081207;28;19943;-89
2023/03/11 08:21:37;;;;;;;;;;;;;;;;;;5094821;28;19922;-89
2023/03/11 08:24:02;;;;;;;;;;;;;;;;;;5094751;28;19923;-88
2023/03/11 08:26:29;;;;;;;;;;;;;;;;;;5094924;28;20375;-88
2023/03/11 08:28:55;;;;;;;;;;;;;;;;;;5094783;28;19923;-90
2023/03/11 08:31:23;;;;;;;;;;;;;;;;;;5094900;28;19939;-90
2023/03/11 08:33:49;;;;;;;;;;;;;;;;;;5094460;28;19923;-90
2023/03/11 08:36:15;;;;;;;;;;;;;;;;;;5088258;28;20295;-88
2023/03/11 08:38:40;;;;;;;;;;;;;;;;;;5071586;28;19922;-87
2023/03/11 08:41:06;;;;;;;;;;;;;;;;;;5080309;28;19988;-87
2023/03/11 08:43:31;;;;;;;;;;;;;;;;;;5076451;28;19916;-88
2023/03/11 08:45:59;;;;;;;;;;;;;;;;;;5076244;28;20278;-88
2023/03/11 08:48:24;;;;;;;;;;;;;;;;;;5094225;28;19989;-90
2023/03/11 08:50:50;;;;;;;;;;;;;;;;;;5092646;28;19917;-90
2023/03/11 08:53:15;;;;;;;;;;;;;;;;;;5083195;28;19917;-89
2023/03/11 08:55:41;;;;;;;;;;;;;;;;;;5091685;28;19912;-89
2023/03/11 08:58:06;;;;;;;;;;;;;;;;;;5077069;28;19923;-88
2023/03/11 09:00:31;;;;;;;;;;;;;;;;;;5089371;28;19920;-88
2023/03/11 09:02:57;;;;;;;;;;;;;;;;;;5079991;28;19919;-89
2023/03/11 09:05:22;;;;;;;;;;;;;;;;;;5090081;28;19967;-89
2023/03/11 09:07:48;;;;;;;;;;;;;;;;;;5093356;28;19969;-89
2023/03/11 09:10:14;;;;;;;;;;;;;;;;;;5093783;28;20058;-89
2023/03/11 09:12:39;;;;;;;;;;;;;;;;;;5094246;28;19916;-87
2023/03/11 09:15:05;;;;;;;;;;;;;;;;;;5075415;28;19961;-87
2023/03/11 09:17:31;;;;;;;;;;;;;;;;;;5075865;28;19923;-85
2023/03/11 09:19:56;;;;;;;;;;;;;;;;;;5093753;28;19926;-86
2023/03/11 09:22:21;;;;;;;;;;;;;;;;;;5092581;28;19916;-87
2023/03/11 09:24:47;;;;;;;;;;;;;;;;;;5077155;28;19924;-87
2023/03/11 09:27:14;;;;;;;;;;;;;;;;;;5085221;28;20480;-89
2023/03/11 09:29:40;;;;;;;;;;;;;;;;;;5088442;28;19916;-85
2023/03/11 09:32:06;;;;;;;;;;;;;;;;;;5078233;28;19916;-87
2023/03/11 09:34:31;;;;;;;;;;;;;;;;;;5092851;28;20375;-87
2023/03/11 09:36:57;;;;;;;;;;;;;;;;;;5078758;28;20368;-87
2023/03/11 09:39:22;;;;;;;;;;;;;;;;;;5075242;28;20302;-86
2023/03/11 09:41:51;;;;;;;;;;;;;;;;;;5085558;28;19920;-88
2023/03/11 09:44:28;;;;;;;;;;;;;;;;;;5092691;28;20421;-88
2023/03/11 09:47:12;;;;;;;;;;;;;;;;;;5066926;28;19916;-89
2023/03/11 09:49:44;;;;;;;;;;;;;;;;;;5064956;28;19997;-90
2023/03/11 09:52:11;;;;;;;;;;;;;;;;;;5092798;28;20015;-89
2023/03/11 09:54:39;;;;;;;;;;;;;;;;;;5092870;28;19916;-89
2023/03/11 09:57:05;;;;;;;;;;;;;;;;;;5098759;28;19920;-89
2023/03/11 09:59:31;;;;;;;;;;;;;;;;;;5090535;28;19922;-90
2023/03/11 10:01:57;;;;;;;;;;;;;;;;;;5116775;28;19905;-86
2023/03/11 10:04:25;;;;;;;;;;;;;;;;;;5118649;28;19920;-89
2023/03/11 10:06:51;;;;;;;;;;;;;;;;;;5091606;28;19920;-86
2023/03/11 10:09:27;;;;;;;;;;;;;;;;;;5088063;28;19947;-86
2023/03/11 10:12:05;;;;;;;;;;;;;;;;;;5087505;28;19916;-87
2023/03/11 10:14:43;;;;;;;;;;;;;;;;;;5087156;28;20011;-87
2023/03/11 10:17:27;;;;;;;;;;;;;;;;;;5087850;28;19916;-85
2023/03/11 10:20:13;;;;;;;;;;;;;;;;;;5091132;28;20306;-88
2023/03/11 10:22:44;;;;;;;;;;;;;;;;;;5055242;28;20294;-88
2023/03/11 10:25:14;;;;;;;;;;;;;;;;;;5080783;28;20334;-86
2023/03/11 10:27:44;;;;;;;;;;;;;;;;;;5091268;28;19923;-86
2023/03/11 10:30:13;;;;;;;;;;;;;;;;;;5094812;28;20433;-88
2023/03/11 10:32:47;;;;;;;;;;;;;;;;;;5078418;28;20682;-89
2023/03/11 10:35:16;;;;;;;;;;;;;;;;;;5079448;28;20300;-85
2023/03/11 10:37:45;;;;;;;;;;;;;;;;;;5089471;28;20735;-86
2023/03/11 10:40:17;;;;;;;;;;;;;;;;;;5090871;28;19916;-86
2023/03/11 10:42:44;;;;;;;;;;;;;;;;;;5079476;28;20644;-87
2023/03/11 10:45:12;;;;;;;;;;;;;;;;;;5061870;28;19947;-87
2023/03/11 10:47:37;;;;;;;;;;;;;;;;;;5090175;28;20081;-87
2023/03/11 10:50:02;;;;;;;;;;;;;;;;;;5090124;28;20423;-86
2023/03/11 10:52:28;;;;;;;;;;;;;;;;;;5090459;28;19916;-86
2023/03/11 10:55:01;;;;;;;;;;;;;;;;;;5090974;28;19924;-87
2023/03/11 10:57:34;;;;;;;;;;;;;;;;;;5089622;28;19924;-87
2023/03/11 11:00:08;;;;;;;;;;;;;;;;;;5089958;28;20367;-87
2023/03/11 11:02:48;;;;;;;;;;;;;;;;;;5090046;28;20370;-87
2023/03/11 11:05:16;;;;;;;;;;;;;;;;;;5089879;28;20019;-86
2023/03/11 11:07:42;;;;;;;;;;;;;;;;;;5090551;28;20406;-85
2023/03/11 11:10:11;;;;;;;;;;;;;;;;;;5083828;28;19916;-88
2023/03/11 11:12:55;;;;;;;;;;;;;;;;;;5082834;28;19925;-87
2023/03/11 11:15:23;;;;;;;;;;;;;;;;;;5073788;28;19977;-86
2023/03/11 11:17:49;;;;;;;;;;;;;;;;;;5056478;28;20280;-87
2023/03/11 11:20:19;;;;;;;;;;;;;;;;;;5074049;28;20291;-87
2023/03/11 11:22:49;;;;;;;;;;;;;;;;;;5074152;28;19966;-87
2023/03/11 11:25:33;;;;;;;;;;;;;;;;;;5074864;28;19924;-88
2023/03/11 11:27:59;;;;;;;;;;;;;;;;;;5075022;28;19917;-87
2023/03/11 11:30:25;;;;;;;;;;;;;;;;;;5074792;28;19964;-87
2023/03/11 11:32:52;;;;;;;;;;;;;;;;;;5075377;28;19924;-86
2023/03/11 11:35:19;;;;;;;;;;;;;;;;;;5075436;28;20007;-86
2023/03/11 11:37:49;;;;;;;;;;;;;;;;;;5057391;28;19981;-87
2023/03/11 11:40:14;;;;;;;;;;;;;;;;;;5057338;28;19921;-85
2023/03/11 11:42:50;;;;;;;;;;;;;;;;;;5075219;28;19929;-88
2023/03/11 11:45:21;;;;;;;;;;;;;;;;;;5075149;28;19928;-87
2023/03/11 11:47:48;;;;;;;;;;;;;;;;;;5075434;28;20017;-87
2023/03/11 11:50:26;;;;;;;;;;;;;;;;;;5075338;28;19944;-86
2023/03/11 11:53:03;;;;;;;;;;;;;;;;;;5075298;28;20300;-87
2023/03/11 11:55:29;;;;;;;;;;;;;;;;;;5075245;28;20014;-87
2023/03/11 11:57:55;;;;;;;;;;;;;;;;;;5057168;28;19917;-86
2023/03/11 12:00:44;;;;;;;;;;;;;;;;;;5074911;28;19923;-88
2023/03/11 12:03:14;;;;;;;;;;;;;;;;;;5066494;28;19917;-86
2023/03/11 12:05:49;;;;;;;;;;;;;;;;;;5074451;28;19924;-86
2023/03/11 12:08:18;;;;;;;;;;;;;;;;;;5074752;28;19917;-86
2023/03/11 12:10:56;;;;;;;;;;;;;;;;;;5074750;28;19920;-87
2023/03/11 12:13:27;;;;;;;;;;;;;;;;;;5056732;28;20351;-88
2023/03/11 12:15:56;;;;;;;;;;;;;;;;;;5074624;28;20029;-88
2023/03/11 12:18:34;;;;;;;;;;;;;;;;;;5056551;28;20279;-89
2023/03/11 12:21:01;;;;;;;;;;;;;;;;;;5074459;28;19923;-88
2023/03/11 12:23:40;;;;;;;;;;;;;;;;;;5074371;28;19916;-88
2023/03/11 12:26:08;;;;;;;;;;;;;;;;;;5056596;28;19963;-87
2023/03/11 12:28:40;;;;;;;;;;;;;;;;;;5074278;28;20413;-90
2023/03/11 12:31:09;;;;;;;;;;;;;;;;;;5056268;28;19916;-88
2023/03/11 12:33:55;;;;;;;;;;;;;;;;;;5074243;28;19943;-88
2023/03/11 12:36:30;;;;;;;;;;;;;;;;;;5073829;28;19916;-88
2023/03/11 12:38:57;;;;;;;;;;;;;;;;;;5074191;28;19916;-86
2023/03/11 12:41:32;;;;;;;;;;;;;;;;;;5073031;28;20276;-86
2023/03/11 12:43:59;;;;;;;;;;;;;;;;;;5055938;28;20260;-85
2023/03/11 12:46:45;;;;;;;;;;;;;;;;;;5073925;28;19920;-87
2023/03/11 12:49:12;;;;;;;;;;;;;;;;;;5042548;28;19921;-85
2023/03/11 12:51:38;;;;;;;;;;;;;;;;;;5073798;28;19927;-87
2023/03/11 12:54:22;;;;;;;;;;;;;;;;;;5055783;28;19924;-87
2023/03/11 12:56:53;;;;;;;;;;;;;;;;;;5073727;28;19917;-85
2023/03/11 12:59:37;;;;;;;;;;;;;;;;;;5073776;28;19917;-86
2023/03/11 13:02:05;;;;;;;;;;;;;;;;;;5055776;28;19939;-86
2023/03/11 13:04:31;;;;;;;;;;;;;;;;;;5055676;28;19960;-85
2023/03/11 13:06:59;;;;;;;;;;;;;;;;;;5073646;28;20291;-86
2023/03/11 13:09:25;;;;;;;;;;;;;;;;;;5073582;28;19962;-86
2023/03/11 13:11:50;;;;;;;;;;;;;;;;;;5055873;28;19916;-85
2023/03/11 13:14:36;;;;;;;;;;;;;;;;;;5055582;28;19928;-86
2023/03/11 13:17:20;;;;;;;;;;;;;;;;;;5072886;28;19921;-87
2023/03/11 13:19:52;;;;;;;;;;;;;;;;;;5073670;28;19917;-86
2023/03/11 13:22:42;;;;;;;;;;;;;;;;;;5073511;28;19921;-88
2023/03/11 13:25:26;;;;;;;;;;;;;;;;;;5065414;28;19917;-87
2023/03/11 13:27:56;;;;;;;;;;;;;;;;;;5073280;28;19962;-86
2023/03/11 13:30:24;;;;;;;;;;;;;;;;;;5072094;28;19916;-87
2023/03/11 13:33:08;;;;;;;;;;;;;;;;;;5073340;28;20367;-88
2023/03/11 13:35:52;;;;;;;;;;;;;;;;;;5055270;28;19921;-87
2023/03/11 13:38:17;;;;;;;;;;;;;;;;;;5073366;28;19952;-86
2023/03/11 13:40:44;;;;;;;;;;;;;;;;;;5073271;28;20272;-86
2023/03/11 13:43:12;;;;;;;;;;;;;;;;;;5055262;28;19921;-88
2023/03/11 13:45:37;;;;;;;;;;;;;;;;;;5073213;28;19970;-87
2023/03/11 13:48:03;;;;;;;;;;;;;;;;;;5073331;28;20288;-86
2023/03/11 13:50:36;;;;;;;;;;;;;;;;;;5055570;28;19924;-88
2023/03/11 13:53:05;;;;;;;;;;;;;;;;;;5057087;28;19967;-87
2023/03/11 13:55:34;;;;;;;;;;;;;;;;;;5077673;28;20015;-89
2023/03/11 13:57:59;;;;;;;;;;;;;;;;;;5059883;28;19923;-88
2023/03/11 14:00:27;;;;;;;;;;;;;;;;;;5059538;28;19921;-88
2023/03/11 14:02:54;;;;;;;;;;;;;;;;;;5077830;28;19923;-88
2023/03/11 14:05:30;;;;;;;;;;;;;;;;;;5077890;28;20390;-87
2023/03/11 14:08:10;;;;;;;;;;;;;;;;;;5098639;28;19917;-87
2023/03/11 14:10:35;;;;;;;;;;;;;;;;;;5084019;28;19928;-86
2023/03/11 14:13:06;;;;;;;;;;;;;;;;;;5062633;28;20012;-85
2023/03/11 14:15:36;;;;;;;;;;;;;;;;;;5077428;28;19927;-85
2023/03/11 14:18:22;;;;;;;;;;;;;;;;;;5077197;28;20384;-87
2023/03/11 14:20:48;;;;;;;;;;;;;;;;;;5076365;28;20426;-86
2023/03/11 14:23:17;;;;;;;;;;;;;;;;;;5077069;28;19965;-85
2023/03/11 14:25:42;;;;;;;;;;;;;;;;;;5076764;28;19927;-87
2023/03/11 14:28:16;;;;;;;;;;;;;;;;;;5076798;28;19916;-86
2023/03/11 14:30:53;;;;;;;;;;;;;;;;;;5076731;28;19923;-87
2023/03/11 14:33:21;;;;;;;;;;;;;;;;;;5076926;28;19917;-86
2023/03/11 14:35:56;;;;;;;;;;;;;;;;;;5076778;28;20364;-86
2023/03/11 14:38:22;;;;;;;;;;;;;;;;;;5076556;28;19922;-87
2023/03/11 14:40:58;;;;;;;;;;;;;;;;;;5076370;28;19964;-87
2023/03/11 14:43:23;;;;;;;;;;;;;;;;;;5076443;28;19924;-85
2023/03/11 14:45:50;;;;;;;;;;;;;;;;;;5076262;28;19916;-87
2023/03/11 14:48:21;;;;;;;;;;;;;;;;;;5076277;28;19916;-87
2023/03/11 14:50:48;;;;;;;;;;;;;;;;;;5076187;28;20418;-86
2023/03/11 14:53:20;;;;;;;;;;;;;;;;;;5076203;28;19924;-87
2023/03/11 14:55:49;;;;;;;;;;;;;;;;;;5076234;28;20007;-86
2023/03/11 14:58:18;;;;;;;;;;;;;;;;;;5058249;28;19962;-87
2023/03/11 15:00:49;;;;;;;;;;;;;;;;;;5076210;28;19917;-85
2023/03/11 15:03:23;;;;;;;;;;;;;;;;;;5076048;28;19920;-86
2023/03/11 15:06:08;;;;;;;;;;;;;;;;;;5074984;28;20415;-87
2023/03/11 15:08:43;;;;;;;;;;;;;;;;;;5058100;28;20278;-86
2023/03/11 15:11:11;;;;;;;;;;;;;;;;;;5076130;28;19916;-86
2023/03/11 15:13:38;;;;;;;;;;;;;;;;;;5076037;28;19917;-89
2023/03/11 15:16:05;;;;;;;;;;;;;;;;;;5075761;28;19975;-87
2023/03/11 15:18:32;;;;;;;;;;;;;;;;;;5057984;28;19920;-87
2023/03/11 15:21:03;;;;;;;;;;;;;;;;;;5075923;28;19970;-88
2023/03/11 15:23:28;;;;;;;;;;;;;;;;;;5075901;28;19967;-88
2023/03/11 15:25:53;;;;;;;;;;;;;;;;;;5075597;28;19963;-88
2023/03/11 15:28:24;;;;;;;;;;;;;;;;;;5075487;28;19917;-88
2023/03/11 15:30:50;;;;;;;;;;;;;;;;;;5057673;28;19917;-88
2023/03/11 15:33:22;;;;;;;;;;;;;;;;;;5075585;28;19939;-88
2023/03/11 15:35:47;;;;;;;;;;;;;;;;;;5057688;28;20058;-87
2023/03/11 15:38:24;;;;;;;;;;;;;;;;;;5075436;28;20019;-87
2023/03/11 15:40:54;;;;;;;;;;;;;;;;;;5075522;28;19923;-87
2023/03/11 15:43:27;;;;;;;;;;;;;;;;;;5075400;28;19923;-88
2023/03/11 15:45:55;;;;;;;;;;;;;;;;;;5057101;28;19924;-87
2023/03/11 15:48:21;;;;;;;;;;;;;;;;;;5057210;28;20027;-89
2023/03/11 15:50:53;;;;;;;;;;;;;;;;;;5057049;28;19966;-87
2023/03/11 15:53:19;;;;;;;;;;;;;;;;;;5075235;28;19917;-89
2023/03/11 15:55:45;;;;;;;;;;;;;;;;;;5056982;28;19912;-88
2023/03/11 15:58:13;;;;;;;;;;;;;;;;;;5074995;28;20011;-86
2023/03/11 16:00:45;;;;;;;;;;;;;;;;;;5075055;28;20451;-86
2023/03/11 16:03:10;;;;;;;;;;;;;;;;;;5074793;28;19916;-86
2023/03/11 16:05:36;;;;;;;;;;;;;;;;;;5074606;28;20282;-87
2023/03/11 16:08:01;;;;;;;;;;;;;;;;;;5074876;28;19916;-86
2023/03/11 16:10:27;;;;;;;;;;;;;;;;;;5074846;28;19986;-87
2023/03/11 16:12:53;;;;;;;;;;;;;;;;;;5074647;28;20003;-86
2023/03/11 16:15:32;;;;;;;;;;;;;;;;;;5056520;28;20019;-87
2023/03/11 16:17:59;;;;;;;;;;;;;;;;;;5073365;28;19958;-88
2023/03/11 16:20:26;;;;;;;;;;;;;;;;;;5056394;28;19920;-86
2023/03/11 16:22:57;;;;;;;;;;;;;;;;;;5056533;28;19916;-86
2023/03/11 16:25:28;;;;;;;;;;;;;;;;;;5074337;28;19927;-88
2023/03/11 16:27:54;;;;;;;;;;;;;;;;;;5074414;28;20326;-86
2023/03/11 16:30:20;;;;;;;;;;;;;;;;;;5074373;28;19912;-86
2023/03/11 16:32:45;;;;;;;;;;;;;;;;;;5074313;28;19920;-87
2023/03/11 16:35:11;;;;;;;;;;;;;;;;;;5074245;28;19923;-85
2023/03/11 16:37:37;;;;;;;;;;;;;;;;;;5074311;28;19917;-87
2023/03/11 16:40:04;;;;;;;;;;;;;;;;;;5074062;28;20382;-86
2023/03/11 16:42:30;;;;;;;;;;;;;;;;;;5074158;28;19913;-86
2023/03/11 16:44:55;;;;;;;;;;;;;;;;;;5074026;28;19916;-87
2023/03/11 16:47:21;;;;;;;;;;;;;;;;;;5073960;28;19917;-85
2023/03/11 16:49:49;;;;;;;;;;;;;;;;;;5073916;28;19929;-86
2023/03/11 16:52:18;;;;;;;;;;;;;;;;;;5073879;28;19999;-86